Time;durP1;ratioP1;P1;durP2;ratioP2;P2;SDS_P1;SDS_P2;PMS_P1;PMS_P2;Temp;Humidity;BMP_temperature;BMP_pressure;BME280_temperature;BME280_humidity;BME280_pressure;Samples;Min_cycle;Max_cycle;Signal;HPM_P1;HPM_P2
2021/12/05 00:18:15;;;;;;;92.53;66.07;;;5.60;99.90;;;;;;5100818;28;20158;-86
2021/12/05 00:23:14;;;;;;;88.75;54.00;;;5.50;99.90;;;;;;5100395;28;20654;-86
2021/12/05 00:25:44;;;;;;;90.40;59.85;;;5.40;99.90;;;;;;5098851;28;20194;-86
2021/12/05 00:55:23;;;;;;;77.68;19.60;;;5.30;99.90;;;;;;5099613;28;20194;-86
2021/12/05 01:16:23;;;;;;;94.45;67.30;;;4.90;99.90;;;;;;5100708;28;20170;-86
2021/12/05 01:18:49;;;;;;;92.53;61.42;;;4.90;99.90;;;;;;5098325;28;20189;-86
2021/12/05 01:21:20;;;;;;;92.63;73.68;;;4.90;99.90;;;;;;5104531;28;20167;-86
2021/12/05 01:26:22;;;;;;;92.15;68.43;;;5.00;99.90;;;;;;5104777;28;20289;-86
2021/12/05 01:29:10;;;;;;;100.03;71.45;;;5.00;99.90;;;;;;5104360;28;20167;-86
2021/12/05 01:34:37;;;;;;;91.72;66.78;;;5.00;99.90;;;;;;5103498;28;20178;-86
2021/12/05 01:37:27;;;;;;;96.00;70.68;;;5.00;99.90;;;;;;5104545;28;20151;-86
2021/12/05 01:40:25;;;;;;;88.53;65.18;;;4.90;99.90;;;;;;5102204;28;20179;-86
2021/12/05 01:56:35;;;;;;;89.50;66.20;;;5.00;99.90;;;;;;5079988;28;20179;-86
2021/12/05 01:59:11;;;;;;;95.50;63.60;;;4.90;99.90;;;;;;5103063;28;20171;-86
2021/12/05 02:34:29;;;;;;;94.63;71.00;;;4.90;99.90;;;;;;5099245;28;20210;-85
2021/12/05 02:37:14;;;;;;;86.78;57.25;;;4.90;99.90;;;;;;5097904;28;20175;-85
2021/12/05 02:42:33;;;;;;;89.38;59.35;;;4.90;99.90;;;;;;5067807;28;20179;-85
2021/12/05 02:45:05;;;;;;;92.55;69.22;;;4.80;99.90;;;;;;5099033;28;20175;-85
2021/12/05 02:47:33;;;;;;;90.97;70.78;;;4.80;99.90;;;;;;5099694;28;20182;-85
2021/12/05 02:50:01;;;;;;;89.43;58.58;;;4.80;99.90;;;;;;5098318;28;20183;-85
2021/12/05 02:52:34;;;;;;;88.60;60.13;;;4.80;99.90;;;;;;5097183;28;20174;-85
2021/12/05 02:55:27;;;;;;;93.63;68.95;;;4.80;99.90;;;;;;5098670;28;20175;-85
2021/12/05 02:58:04;;;;;;;88.05;60.70;;;4.90;99.90;;;;;;5098303;28;20164;-85
2021/12/05 03:01:22;;;;;;;87.32;50.90;;;4.90;99.90;;;;;;5098512;28;20261;-85
2021/12/05 03:03:24;;;;;;;80.47;37.83;;;4.90;99.90;;;;;;5090000;28;20182;-85
2021/12/05 03:06:00;;;;;;;82.15;41.67;;;4.90;99.90;;;;;;5098370;28;20191;-85
2021/12/05 03:08:26;;;;;;;74.88;24.10;;;4.80;99.90;;;;;;5097479;28;20618;-85
2021/12/05 03:10:54;;;;;;;76.90;15.33;;;4.80;99.90;;;;;;5098665;28;20312;-85
2021/12/05 03:13:21;;;;;;;71.28;11.32;;;4.90;99.90;;;;;;5096966;28;20452;-85
2021/12/05 03:15:47;;;;;;;80.38;13.18;;;4.80;99.90;;;;;;5097154;28;20163;-85
2021/12/05 03:18:12;;;;;;;76.27;12.77;;;4.80;99.90;;;;;;5098169;28;20159;-85
2021/12/05 03:20:38;;;;;;;78.33;11.83;;;4.70;99.90;;;;;;5098269;28;20191;-85
2021/12/05 03:23:04;;;;;;;73.10;11.87;;;4.60;99.90;;;;;;5096611;28;20159;-85
2021/12/05 03:25:31;;;;;;;70.90;11.80;;;4.50;99.90;;;;;;5097970;28;20480;-85
2021/12/05 03:27:56;;;;;;;98.05;15.85;;;4.50;99.90;;;;;;5096824;28;20174;-85
2021/12/05 03:30:28;;;;;;;72.93;18.67;;;4.40;99.90;;;;;;5096518;28;20183;-85
2021/12/05 03:32:55;;;;;;;79.63;22.08;;;4.40;99.90;;;;;;5097736;28;20399;-85
2021/12/05 03:35:24;;;;;;;76.70;22.95;;;4.40;99.90;;;;;;5096870;28;20198;-85
2021/12/05 03:37:51;;;;;;;77.70;28.85;;;4.30;99.90;;;;;;5097949;28;20161;-85
2021/12/05 03:40:20;;;;;;;82.40;45.17;;;4.20;99.90;;;;;;5097792;28;20171;-85
2021/12/05 03:42:47;;;;;;;82.70;41.00;;;4.20;99.90;;;;;;5097697;28;20172;-85
2021/12/05 03:45:18;;;;;;;83.53;49.00;;;4.20;99.90;;;;;;5098524;28;20163;-86
2021/12/05 03:47:44;;;;;;;87.57;50.97;;;4.20;99.90;;;;;;5097372;28;20160;-86
2021/12/05 03:50:11;;;;;;;87.75;52.30;;;4.10;99.90;;;;;;5097638;28;20572;-86
2021/12/05 03:52:39;;;;;;;88.88;58.90;;;4.10;99.90;;;;;;5097390;28;20550;-86
2021/12/05 03:55:07;;;;;;;91.63;56.95;;;4.00;99.90;;;;;;5097943;28;20693;-85
2021/12/05 03:57:33;;;;;;;88.18;52.90;;;4.00;99.90;;;;;;5097552;28;20167;-86
2021/12/05 03:59:59;;;;;;;84.73;50.90;;;4.00;99.90;;;;;;5097831;28;20235;-85
2021/12/05 04:02:25;;;;;;;89.77;55.43;;;4.00;99.90;;;;;;5097977;28;20389;-85
2021/12/05 04:04:51;;;;;;;84.00;51.27;;;4.10;99.90;;;;;;5097575;28;20397;-85
2021/12/05 04:07:18;;;;;;;93.65;64.97;;;4.10;99.90;;;;;;5097466;28;20155;-85
2021/12/05 04:09:49;;;;;;;89.35;53.80;;;4.10;99.90;;;;;;5096554;28;20198;-85
2021/12/05 04:12:16;;;;;;;83.18;47.65;;;4.00;99.90;;;;;;5097234;28;20175;-86
2021/12/05 04:14:48;;;;;;;84.63;50.33;;;4.00;99.90;;;;;;5097626;28;20179;-85
2021/12/05 04:17:18;;;;;;;87.25;51.97;;;4.00;99.90;;;;;;5095444;28;20179;-85
2021/12/05 04:19:44;;;;;;;90.57;61.05;;;4.00;99.90;;;;;;5095698;28;20237;-86
2021/12/05 04:22:10;;;;;;;84.50;53.90;;;4.00;99.90;;;;;;5097121;28;20688;-85
2021/12/05 04:24:36;;;;;;;82.57;44.55;;;4.00;99.90;;;;;;5096745;28;20492;-85
2021/12/05 04:27:03;;;;;;;83.32;52.45;;;4.00;99.90;;;;;;5096068;28;20184;-85
2021/12/05 04:29:29;;;;;;;83.32;48.38;;;3.90;99.90;;;;;;5096716;28;20240;-86
2021/12/05 04:31:55;;;;;;;82.83;48.00;;;3.90;99.90;;;;;;5096945;28;20167;-85
2021/12/05 04:34:20;;;;;;;82.57;44.03;;;3.80;99.90;;;;;;5095802;28;20508;-85
2021/12/05 04:36:55;;;;;;;82.67;51.07;;;3.70;99.90;;;;;;5097057;28;20691;-85
2021/12/05 04:39:21;;;;;;;83.88;45.97;;;3.70;99.90;;;;;;5095601;28;20187;-86
2021/12/05 04:41:47;;;;;;;82.00;42.30;;;3.70;99.90;;;;;;5097229;28;20177;-85
2021/12/05 04:44:12;;;;;;;83.90;50.40;;;3.60;99.90;;;;;;5096418;28;20690;-85
2021/12/05 04:46:39;;;;;;;82.60;46.37;;;3.60;99.90;;;;;;5097615;28;20631;-85
2021/12/05 04:49:08;;;;;;;83.80;45.50;;;3.60;99.90;;;;;;5095424;28;20187;-85
2021/12/05 04:51:38;;;;;;;83.20;47.65;;;3.50;99.90;;;;;;5097365;28;20160;-85
2021/12/05 04:54:05;;;;;;;85.55;46.47;;;3.50;99.90;;;;;;5097521;28;20240;-85
2021/12/05 04:56:31;;;;;;;84.38;40.33;;;3.50;99.90;;;;;;5100241;28;20212;-84
2021/12/05 04:58:59;;;;;;;88.05;51.33;;;3.50;99.90;;;;;;5098826;28;20163;-85
2021/12/05 05:01:26;;;;;;;89.00;43.40;;;3.50;99.90;;;;;;5100788;28;20169;-85
2021/12/05 05:03:52;;;;;;;84.03;40.92;;;3.40;99.90;;;;;;5100822;28;20163;-84
2021/12/05 05:06:19;;;;;;;81.47;46.63;;;3.50;99.90;;;;;;5101362;28;20703;-85
2021/12/05 05:08:52;;;;;;;92.10;59.25;;;3.50;99.90;;;;;;5100278;28;20171;-85
2021/12/05 05:11:20;;;;;;;85.78;48.35;;;3.40;99.90;;;;;;5099594;28;20187;-84
2021/12/05 05:13:48;;;;;;;80.35;41.30;;;3.40;99.90;;;;;;5100854;28;20270;-85
2021/12/05 05:16:16;;;;;;;85.47;45.42;;;3.40;99.90;;;;;;5100214;28;20687;-84
2021/12/05 05:18:54;;;;;;;78.43;38.35;;;3.40;99.90;;;;;;5099993;28;20181;-85
2021/12/05 05:21:38;;;;;;;80.75;37.60;;;3.40;99.90;;;;;;5098912;28;20572;-85
2021/12/05 05:48:36;;;;;;;80.18;37.70;;;2.90;99.90;;;;;;5100400;28;20151;-85
2021/12/05 05:51:04;;;;;;;80.22;37.88;;;2.80;99.90;;;;;;5099915;28;20202;-85
2021/12/05 05:53:30;;;;;;;80.50;33.55;;;2.80;99.90;;;;;;5098840;28;20195;-84
2021/12/05 05:55:57;;;;;;;84.40;41.88;;;2.80;99.90;;;;;;5098324;28;20515;-85
2021/12/05 05:58:38;;;;;;;79.00;39.88;;;2.80;99.90;;;;;;5099981;28;20238;-85
2021/12/05 06:01:15;;;;;;;81.55;45.75;;;2.80;99.90;;;;;;5098414;28;20649;-85
2021/12/05 06:03:40;;;;;;;82.65;45.58;;;2.80;99.90;;;;;;5100402;28;20159;-85
2021/12/05 06:06:11;;;;;;;84.90;52.97;;;2.80;99.90;;;;;;5098346;28;20174;-85
2021/12/05 06:08:38;;;;;;;91.95;51.63;;;2.80;99.90;;;;;;5099232;28;20194;-85
2021/12/05 06:11:08;;;;;;;84.97;43.60;;;2.80;99.90;;;;;;5099444;28;20209;-85
2021/12/05 06:13:36;;;;;;;88.63;42.55;;;2.80;99.90;;;;;;5099092;28;20183;-85
2021/12/05 06:16:02;;;;;;;77.53;33.58;;;2.80;99.90;;;;;;5099859;28;20214;-85
2021/12/05 06:18:28;;;;;;;81.60;39.65;;;2.80;99.90;;;;;;5099566;28;20159;-85
2021/12/05 06:20:55;;;;;;;82.20;44.65;;;2.80;99.90;;;;;;5098118;28;20540;-85
2021/12/05 06:23:21;;;;;;;81.22;43.35;;;2.80;99.90;;;;;;5098565;28;20167;-84
2021/12/05 06:25:50;;;;;;;91.75;63.17;;;2.80;99.90;;;;;;5097571;28;20190;-85
2021/12/05 06:28:22;;;;;;;85.07;52.50;;;2.80;99.90;;;;;;5098953;28;20654;-84
2021/12/05 06:31:07;;;;;;;92.53;57.72;;;2.70;99.90;;;;;;5098171;28;20187;-85
2021/12/05 06:46:58;;;;;;;94.45;73.38;;;2.70;99.90;;;;;;5100429;28;20154;-85
2021/12/05 06:49:23;;;;;;;105.90;94.43;;;2.80;99.90;;;;;;5098180;28;20183;-85
2021/12/05 06:51:49;;;;;;;96.73;86.33;;;2.80;99.90;;;;;;5100206;28;20500;-85
2021/12/05 06:54:15;;;;;;;100.97;90.33;;;2.80;99.90;;;;;;5097903;28;20202;-85
2021/12/05 06:56:43;;;;;;;112.60;101.10;;;2.70;99.90;;;;;;5099006;28;20164;-84
2021/12/05 06:59:09;;;;;;;98.18;87.65;;;2.70;99.90;;;;;;5099356;28;20181;-85
2021/12/05 07:01:35;;;;;;;90.53;73.07;;;2.70;99.90;;;;;;5099305;28;20224;-84
2021/12/05 07:04:08;;;;;;;107.67;96.60;;;2.70;99.90;;;;;;5098643;28;20201;-84
2021/12/05 07:06:38;;;;;;;110.03;98.53;;;2.70;99.90;;;;;;5097648;28;20230;-85
2021/12/05 07:09:08;;;;;;;102.45;90.35;;;2.70;99.90;;;;;;5099047;28;20187;-84
2021/12/05 07:21:48;;;;;;;94.10;82.60;;;2.80;99.90;;;;;;5098579;28;20146;-85
2021/12/05 07:24:40;;;;;;;115.18;103.57;;;2.80;99.90;;;;;;5099990;28;20147;-85
2021/12/05 07:40:41;;;;;;;95.72;85.32;;;3.00;99.90;;;;;;5098159;28;20186;-85
2021/12/05 07:43:09;;;;;;;94.15;79.25;;;3.10;99.90;;;;;;5098624;28;20162;-85
2021/12/05 07:45:44;;;;;;;101.93;90.93;;;3.10;99.90;;;;;;5096667;28;20163;-85
2021/12/05 07:48:26;;;;;;;104.25;93.30;;;3.10;99.90;;;;;;5097570;28;20159;-84
2021/12/05 07:51:41;;;;;;;97.32;84.82;;;3.20;99.90;;;;;;5121080;22;20600;-85
2021/12/05 07:57:27;;;;;;;90.18;69.05;;;3.30;99.90;;;;;;5099427;28;20155;-85
2021/12/05 08:17:02;;;;;;;112.13;100.90;;;3.70;99.90;;;;;;5097896;28;20226;-84
2021/12/05 08:19:30;;;;;;;120.97;109.25;;;3.70;99.90;;;;;;5098113;28;20213;-84
2021/12/05 08:21:56;;;;;;;108.72;97.53;;;3.70;99.90;;;;;;5096354;28;20170;-85
2021/12/05 08:24:30;;;;;;;152.23;139.17;;;3.60;99.90;;;;;;5098573;28;20507;-85
2021/12/05 08:27:00;;;;;;;127.40;115.85;;;3.70;99.90;;;;;;5096743;28;20412;-85
2021/12/05 08:29:44;;;;;;;130.32;118.47;;;3.70;99.90;;;;;;5096277;28;20791;-85
2021/12/05 08:35:15;;;;;;;109.55;98.72;;;3.80;99.90;;;;;;5098998;28;20229;-84
2021/12/05 08:38:38;;;;;;;123.82;112.30;;;3.80;99.90;;;;;;5097787;28;20651;-84
2021/12/05 10:03:34;;;;;;;133.30;120.53;;;5.00;99.90;;;;;;5100043;28;20150;-85
2021/12/05 10:11:33;;;;;;;161.85;148.70;;;5.10;99.90;;;;;;5100479;28;20166;-84
2021/12/05 10:20:17;;;;;;;168.52;153.90;;;5.20;99.90;;;;;;5100335;28;20217;-84
2021/12/05 10:43:44;;;;;;;116.50;103.97;;;5.60;99.90;;;;;;5091438;28;20257;-84
2021/12/05 10:46:29;;;;;;;119.05;106.18;;;5.60;99.90;;;;;;5097880;28;20175;-85
2021/12/05 10:49:13;;;;;;;177.00;80.88;;;5.60;99.90;;;;;;5097936;28;20171;-84
2021/12/05 10:51:59;;;;;;;109.22;66.70;;;5.70;99.90;;;;;;5098408;28;20213;-84
2021/12/05 10:54:33;;;;;;;102.82;71.10;;;5.80;99.90;;;;;;5097656;28;20191;-84
2021/12/05 10:57:04;;;;;;;102.53;69.00;;;5.90;99.90;;;;;;5100421;28;20166;-84
2021/12/05 10:59:41;;;;;;;93.50;64.00;;;5.80;99.90;;;;;;5098129;28;20191;-84
2021/12/05 11:02:13;;;;;;;99.43;76.90;;;5.80;99.90;;;;;;5097175;28;20155;-84
2021/12/05 11:04:57;;;;;;;104.15;75.43;;;5.70;99.90;;;;;;5097943;28;20515;-84
2021/12/05 11:07:43;;;;;;;100.70;81.80;;;5.80;99.90;;;;;;5098536;28;20147;-84
2021/12/05 11:10:17;;;;;;;96.80;85.93;;;5.80;99.90;;;;;;5097687;28;20187;-84
2021/12/05 11:12:43;;;;;;;90.93;72.85;;;5.80;99.90;;;;;;5097135;28;20155;-84
2021/12/05 11:15:21;;;;;;;90.20;67.47;;;5.80;99.90;;;;;;5097125;28;20251;-84
2021/12/05 11:17:50;;;;;;;98.22;75.20;;;5.80;99.90;;;;;;5097310;28;20491;-84
2021/12/05 11:20:41;;;;;;;110.35;98.93;;;5.90;99.90;;;;;;5096823;28;20183;-84
2021/12/05 11:24:22;;;;;;;96.40;73.95;;;6.00;99.90;;;;;;5096975;28;20171;-84
2021/12/05 11:26:23;;;;;;;107.50;83.30;;;6.10;99.90;;;;;;5084012;28;20175;-84
2021/12/05 11:28:58;;;;;;;90.90;64.13;;;6.10;99.90;;;;;;5096840;28;20638;-84
2021/12/05 11:31:38;;;;;;;88.15;61.90;;;6.20;99.90;;;;;;5096898;28;20198;-84
2021/12/05 11:34:04;;;;;;;87.18;53.83;;;6.20;99.90;;;;;;5097573;28;20222;-85
2021/12/05 11:36:34;;;;;;;83.03;47.83;;;6.20;99.90;;;;;;5097431;28;20172;-84
2021/12/05 11:39:34;;;;;;;84.25;30.77;;;6.20;99.90;;;;;;5097633;28;20167;-85
2021/12/05 11:42:49;;;;;;;79.75;18.63;;;6.30;99.90;;;;;;5098260;28;20147;-85
2021/12/05 11:45:18;;;;;;;72.85;16.00;;;6.30;99.90;;;;;;5097547;28;20170;-85
2021/12/05 11:47:51;;;;;;;74.65;15.50;;;6.30;99.90;;;;;;5096884;28;20267;-85
2021/12/05 11:50:29;;;;;;;70.57;12.13;;;6.40;99.90;;;;;;5099057;28;20183;-85
2021/12/05 11:53:20;;;;;;;73.38;13.57;;;6.50;99.90;;;;;;5098150;28;20162;-85
2021/12/05 11:55:54;;;;;;;93.82;27.40;;;6.60;99.90;;;;;;5096743;28;20695;-84
2021/12/05 11:58:32;;;;;;;86.32;31.85;;;6.70;99.90;;;;;;5098932;28;20525;-84
2021/12/05 12:01:16;;;;;;;80.47;32.58;;;6.80;99.90;;;;;;5097751;28;20535;-85
2021/12/05 12:03:47;;;;;;;78.50;28.05;;;6.80;99.90;;;;;;5098405;28;20175;-84
2021/12/05 12:06:36;;;;;;;77.47;33.45;;;6.80;99.90;;;;;;5097683;28;20177;-85
2021/12/05 12:09:23;;;;;;;79.50;37.42;;;6.70;99.90;;;;;;5097956;28;20163;-85
2021/12/05 12:11:56;;;;;;;74.22;25.25;;;6.70;99.90;;;;;;5099990;28;20194;-85
2021/12/05 12:14:28;;;;;;;74.53;17.03;;;6.70;99.90;;;;;;5097836;28;20594;-85
2021/12/05 12:17:01;;;;;;;70.80;10.95;;;6.90;99.90;;;;;;5098890;28;20421;-85
2021/12/05 12:19:31;;;;;;;77.85;25.75;;;7.10;99.90;;;;;;5096656;28;20198;-85
2021/12/05 12:22:03;;;;;;;74.25;17.65;;;6.80;99.90;;;;;;5097822;28;20614;-85
2021/12/05 12:24:29;;;;;;;72.97;11.93;;;6.70;99.90;;;;;;5098449;28;20639;-85
2021/12/05 12:26:55;;;;;;;77.80;20.27;;;6.70;99.90;;;;;;5098767;28;20261;-85
2021/12/05 12:29:25;;;;;;;119.30;54.63;;;6.80;99.90;;;;;;5099122;28;20183;-85
2021/12/05 12:31:53;;;;;;;127.35;59.10;;;6.90;99.90;;;;;;5099796;28;20159;-86
2021/12/05 12:34:21;;;;;;;90.57;30.45;;;7.00;99.90;;;;;;5098401;28;20195;-85
2021/12/05 12:36:50;;;;;;;77.40;25.90;;;6.90;99.90;;;;;;5097864;28;20191;-85
2021/12/05 12:39:15;;;;;;;74.38;25.88;;;6.90;99.90;;;;;;5097839;28;20183;-85
2021/12/05 12:41:43;;;;;;;77.90;36.70;;;7.00;99.90;;;;;;5098749;28;20159;-85
2021/12/05 12:44:09;;;;;;;80.00;38.55;;;7.00;99.90;;;;;;5097581;28;20209;-85
2021/12/05 12:46:48;;;;;;;;;;;;;;;;;;;;;
2021/12/05 12:49:20;;;;;;;79.70;37.47;;;6.90;99.90;;;;;;5099882;28;20480;-85
2021/12/05 12:52:09;;;;;;;76.38;32.03;;;6.90;99.90;;;;;;5098408;28;20171;-87
2021/12/05 12:54:44;;;;;;;77.53;34.60;;;6.90;99.90;;;;;;5090989;28;20210;-85
2021/12/05 12:57:14;;;;;;;74.15;21.70;;;6.80;99.90;;;;;;5097564;28;20162;-85
2021/12/05 13:00:06;;;;;;;72.53;20.85;;;6.90;99.90;;;;;;5098197;28;20179;-85
2021/12/05 13:11:23;;;;;;;81.65;34.65;;;7.00;99.90;;;;;;5098748;28;20159;-85
2021/12/05 13:14:07;;;;;;;78.35;36.50;;;7.00;99.90;;;;;;5098625;28;20228;-85
2021/12/05 13:16:39;;;;;;;74.03;23.23;;;7.00;99.90;;;;;;5100330;28;20159;-85
2021/12/05 13:19:26;;;;;;;74.53;25.52;;;7.10;99.90;;;;;;5101671;28;20207;-85
2021/12/05 13:21:54;;;;;;;76.03;29.35;;;7.00;99.90;;;;;;5102673;28;20629;-85
2021/12/05 13:24:30;;;;;;;72.03;19.92;;;7.00;99.90;;;;;;5101491;28;20178;-85
2021/12/05 13:27:08;;;;;;;70.38;14.30;;;7.00;99.90;;;;;;5101458;28;20163;-86
2021/12/05 13:29:37;;;;;;;69.50;11.32;;;7.00;99.90;;;;;;5101333;28;20213;-85
2021/12/05 13:32:34;;;;;;;70.55;12.55;;;7.10;99.90;;;;;;5101299;28;20163;-87
2021/12/05 13:35:07;;;;;;;73.80;21.95;;;7.10;99.90;;;;;;5023278;28;20209;-87
2021/12/05 13:37:53;;;;;;;75.30;25.65;;;7.00;99.90;;;;;;5040192;28;20170;-87
2021/12/05 13:43:29;;;;;;;70.72;12.48;;;7.10;99.90;;;;;;5080498;28;20171;-86
2021/12/05 13:45:59;;;;;;;71.80;9.77;;;7.10;99.90;;;;;;5102025;28;20155;-86
2021/12/05 13:48:43;;;;;;;70.65;11.20;;;7.20;99.90;;;;;;5102417;28;20167;-85
2021/12/05 13:51:26;;;;;;;68.53;9.90;;;7.20;99.90;;;;;;5100850;28;20175;-86
2021/12/05 13:54:21;;;;;;;70.38;12.57;;;7.20;99.90;;;;;;5102127;28;20187;-85
2021/12/05 13:57:15;;;;;;;69.53;11.50;;;7.20;99.90;;;;;;5085409;28;20159;-85
2021/12/05 13:59:41;;;;;;;70.82;13.80;;;7.20;99.90;;;;;;5100491;28;20171;-86
2021/12/05 14:02:21;;;;;;;70.68;14.38;;;7.20;99.90;;;;;;5099775;28;20174;-85
2021/12/05 14:05:15;;;;;;;70.63;13.65;;;7.10;99.90;;;;;;5101166;28;20155;-86
2021/12/05 14:08:02;;;;;;;70.45;13.20;;;7.10;99.90;;;;;;5099601;28;20551;-86
2021/12/05 14:12:58;;;;;;;73.70;17.15;;;7.00;99.90;;;;;;5113469;28;20198;-87
2021/12/05 14:15:57;;;;;;;77.90;17.10;;;7.10;99.90;;;;;;5116578;28;20193;-87
2021/12/05 14:18:24;;;;;;;71.60;17.40;;;7.10;99.90;;;;;;5094921;28;20675;-87
2021/12/05 14:20:50;;;;;;;70.40;11.75;;;7.00;99.90;;;;;;5116374;28;20178;-87
2021/12/05 14:23:22;;;;;;;69.50;11.83;;;6.90;99.90;;;;;;5115114;28;20166;-88
2021/12/05 14:25:48;;;;;;;72.18;13.13;;;6.80;99.90;;;;;;5115963;28;20400;-88
2021/12/05 14:28:14;;;;;;;71.17;11.87;;;6.80;99.90;;;;;;5115874;28;20188;-87
2021/12/05 14:30:40;;;;;;;72.22;10.85;;;6.80;99.90;;;;;;5115879;28;20178;-87
2021/12/05 14:33:06;;;;;;;72.43;10.75;;;6.80;99.90;;;;;;5116326;28;20159;-87
2021/12/05 14:35:39;;;;;;;74.43;13.70;;;6.80;99.90;;;;;;5115728;28;20190;-87
2021/12/05 14:38:06;;;;;;;75.30;14.38;;;6.80;99.90;;;;;;5115749;28;20521;-87
2021/12/05 14:40:34;;;;;;;74.53;13.73;;;6.80;99.90;;;;;;5114317;28;20178;-87
2021/12/05 14:43:04;;;;;;;74.65;14.30;;;6.80;99.90;;;;;;5115668;27;20186;-87
2021/12/05 14:45:36;;;;;;;75.95;26.45;;;6.70;99.90;;;;;;5115648;28;20170;-88
2021/12/05 14:48:09;;;;;;;80.15;34.25;;;6.70;99.90;;;;;;5115586;28;20178;-88
2021/12/05 14:50:36;;;;;;;79.30;26.83;;;6.60;99.90;;;;;;5115516;28;20579;-88
2021/12/05 14:53:06;;;;;;;78.40;29.75;;;6.70;99.90;;;;;;5115719;28;20245;-88
2021/12/05 14:55:35;;;;;;;87.30;34.70;;;6.70;99.90;;;;;;5115370;28;20193;-86
2021/12/05 14:58:05;;;;;;;80.85;36.83;;;6.60;99.90;;;;;;5115650;28;20597;-86
2021/12/05 15:00:42;;;;;;;80.80;38.35;;;6.60;99.90;;;;;;5115330;28;20587;-85
2021/12/05 15:03:13;;;;;;;85.05;41.30;;;6.50;99.90;;;;;;5115630;28;20556;-86
2021/12/05 15:05:44;;;;;;;78.57;33.35;;;6.50;99.90;;;;;;5115214;28;20188;-86
2021/12/05 15:08:13;;;;;;;83.35;39.42;;;6.50;99.90;;;;;;5113918;28;20158;-86
2021/12/05 15:10:41;;;;;;;76.25;28.85;;;6.50;99.90;;;;;;5114933;28;20180;-85
2021/12/05 15:13:09;;;;;;;77.95;31.77;;;6.50;99.90;;;;;;5115424;28;20641;-85
2021/12/05 15:15:38;;;;;;;81.35;35.42;;;6.50;99.90;;;;;;5115297;28;20189;-83
2021/12/05 15:18:14;;;;;;;81.53;30.80;;;6.50;99.90;;;;;;5117248;28;20162;-88
2021/12/05 15:20:46;;;;;;;87.30;25.05;;;6.60;99.90;;;;;;5114274;28;20178;-87
2021/12/05 15:23:13;;;;;;;121.80;109.05;;;6.70;99.90;;;;;;5112528;28;20415;-87
2021/12/05 15:25:44;;;;;;;85.40;34.15;;;6.70;99.90;;;;;;5114736;28;20529;-87
2021/12/05 15:28:11;;;;;;;81.95;17.02;;;6.60;99.90;;;;;;5114275;28;20298;-89
2021/12/05 15:30:41;;;;;;;82.97;18.95;;;6.60;99.90;;;;;;5114153;28;20187;-89
2021/12/05 15:33:19;;;;;;;82.95;18.90;;;6.60;99.90;;;;;;5114990;28;20633;-87
2021/12/05 15:35:47;;;;;;;77.68;11.85;;;6.60;99.90;;;;;;5114959;28;20157;-86
2021/12/05 15:38:21;;;;;;;74.57;14.07;;;6.60;99.90;;;;;;5113048;28;20656;-87
2021/12/05 15:40:49;;;;;;;74.30;13.38;;;6.50;99.90;;;;;;5113216;28;20186;-87
2021/12/05 15:43:19;;;;;;;75.13;15.05;;;6.50;99.90;;;;;;5113396;28;20173;-87
2021/12/05 15:45:47;;;;;;;72.25;12.68;;;6.50;99.90;;;;;;5113361;28;20169;-89
2021/12/05 15:48:34;;;;;;;72.43;13.90;;;6.50;99.90;;;;;;5115725;28;20197;-89
2021/12/05 15:51:03;;;;;;;73.65;16.98;;;6.40;99.90;;;;;;5114268;28;20182;-89
2021/12/05 15:53:36;;;;;;;77.70;27.90;;;6.40;99.90;;;;;;5113323;28;20162;-89
2021/12/05 15:56:07;;;;;;;81.80;42.50;;;6.40;99.90;;;;;;5114297;28;20159;-89
2021/12/05 15:58:58;;;;;;;81.07;38.08;;;6.30;99.90;;;;;;5114612;28;20219;-89
2021/12/05 16:01:24;;;;;;;82.65;45.22;;;6.30;99.90;;;;;;5113880;28;20155;-89
2021/12/05 16:03:54;;;;;;;83.07;44.17;;;6.30;99.90;;;;;;5112470;28;20178;-89
2021/12/05 16:06:30;;;;;;;90.13;49.90;;;6.30;99.90;;;;;;5113553;28;20158;-90
2021/12/05 16:08:57;;;;;;;82.95;41.92;;;6.30;99.90;;;;;;5112724;28;20208;-89
2021/12/05 16:11:23;;;;;;;85.82;44.00;;;6.30;99.90;;;;;;5113889;28;20182;-89
2021/12/05 16:13:52;;;;;;;83.47;40.95;;;6.30;99.90;;;;;;5112593;28;20186;-89
2021/12/05 16:16:22;;;;;;;83.80;38.08;;;6.30;99.90;;;;;;5114213;28;20197;-89
2021/12/05 16:18:54;;;;;;;75.68;24.50;;;6.30;99.90;;;;;;5113206;28;20253;-89
2021/12/05 16:21:31;;;;;;;75.53;22.08;;;6.20;99.90;;;;;;5112653;28;20157;-89
2021/12/05 16:24:06;;;;;;;79.13;20.88;;;6.20;99.90;;;;;;5114112;28;20158;-89
2021/12/05 16:26:33;;;;;;;79.60;27.65;;;6.20;99.90;;;;;;5112898;28;20150;-89
2021/12/05 16:29:04;;;;;;;80.68;39.15;;;6.20;99.90;;;;;;5113617;28;20166;-89
2021/12/05 16:31:52;;;;;;;80.38;34.17;;;6.20;99.90;;;;;;5114328;28;20177;-89
2021/12/05 16:34:21;;;;;;;76.20;19.58;;;6.20;99.90;;;;;;5113929;28;20205;-89
2021/12/05 16:36:58;;;;;;;75.28;19.67;;;6.20;99.90;;;;;;5112336;28;20538;-89
2021/12/05 16:40:00;;;;;;;86.63;34.88;;;6.20;99.90;;;;;;5113072;28;20617;-89
2021/12/05 16:42:35;;;;;;;80.53;27.27;;;6.10;99.90;;;;;;5112859;28;20241;-90
2021/12/05 16:45:01;;;;;;;79.20;33.20;;;6.10;99.90;;;;;;5113026;28;20181;-89
2021/12/05 16:47:34;;;;;;;83.75;40.63;;;6.10;99.90;;;;;;5110147;28;20705;-90
2021/12/05 16:50:05;;;;;;;85.82;37.22;;;6.10;99.90;;;;;;5114177;28;20194;-90
2021/12/05 16:52:39;;;;;;;81.97;33.45;;;6.10;99.90;;;;;;5118006;28;20633;-90
2021/12/05 16:55:26;;;;;;;81.68;39.38;;;6.10;99.90;;;;;;5117187;28;20185;-90
2021/12/05 16:58:05;;;;;;;82.20;34.50;;;6.10;99.90;;;;;;5117703;28;20143;-90
2021/12/05 17:00:45;;;;;;;78.47;31.40;;;6.10;99.90;;;;;;5116660;28;20679;-90
2021/12/05 17:03:23;;;;;;;78.68;27.25;;;6.00;99.90;;;;;;5117640;28;20153;-90
2021/12/05 17:06:04;;;;;;;78.63;32.20;;;6.00;99.90;;;;;;5117597;28;20146;-90
2021/12/05 17:08:35;;;;;;;78.57;33.35;;;6.00;99.90;;;;;;5117077;28;20261;-90
2021/12/05 17:11:06;;;;;;;80.03;30.77;;;6.00;99.90;;;;;;5116066;28;20294;-90
2021/12/05 17:13:40;;;;;;;80.88;34.80;;;6.00;99.90;;;;;;5116880;28;20181;-90
2021/12/05 17:16:15;;;;;;;78.00;28.10;;;6.00;99.90;;;;;;5117953;28;20144;-90
2021/12/05 17:18:58;;;;;;;76.28;27.63;;;6.00;99.90;;;;;;5116036;28;20182;-91
2021/12/05 17:21:31;;;;;;;75.13;20.67;;;6.00;99.90;;;;;;5116040;28;20155;-92
2021/12/05 17:24:18;;;;;;;79.38;31.10;;;6.10;99.90;;;;;;5116764;28;20245;-91
2021/12/05 17:26:48;;;;;;;78.72;30.83;;;6.10;99.90;;;;;;5115961;28;20166;-90
2021/12/05 17:29:19;;;;;;;81.90;33.50;;;6.00;99.90;;;;;;5116990;28;20178;-91
2021/12/05 17:31:57;;;;;;;76.40;27.77;;;6.00;99.90;;;;;;5117075;28;20230;-90
2021/12/05 17:34:32;;;;;;;83.70;35.22;;;6.00;99.90;;;;;;5116399;28;20221;-91
2021/12/05 17:37:13;;;;;;;79.28;32.72;;;6.00;99.90;;;;;;5115759;28;20579;-91
2021/12/05 17:39:45;;;;;;;80.10;35.13;;;6.00;99.90;;;;;;5117133;28;20182;-91
2021/12/05 17:42:26;;;;;;;80.60;31.83;;;6.10;99.90;;;;;;5115707;28;20234;-90
2021/12/05 17:44:57;;;;;;;80.75;32.00;;;6.00;99.90;;;;;;5116833;28;20200;-90
2021/12/05 17:47:24;;;;;;;79.38;30.80;;;6.00;99.90;;;;;;5115563;28;20159;-91
2021/12/05 17:49:54;;;;;;;77.55;24.70;;;6.10;99.90;;;;;;5116880;28;20190;-91
2021/12/05 17:52:38;;;;;;;79.65;31.75;;;6.10;99.90;;;;;;5115684;28;20162;-91
2021/12/05 17:55:20;;;;;;;77.43;30.55;;;6.00;99.90;;;;;;5113318;28;20209;-91
2021/12/05 17:57:55;;;;;;;74.45;18.42;;;6.00;99.90;;;;;;5115181;28;20186;-91
2021/12/05 18:02:56;;;;;;;71.88;13.13;;;6.00;99.90;;;;;;5116246;28;20151;-91
2021/12/05 18:05:39;;;;;;;72.85;14.55;;;6.00;99.90;;;;;;5115123;28;20171;-91
2021/12/05 18:08:13;;;;;;;74.78;19.02;;;6.00;99.90;;;;;;5115563;28;20162;-90
2021/12/05 18:10:55;;;;;;;77.82;24.55;;;6.00;99.90;;;;;;5114954;28;20658;-90
2021/12/05 18:13:24;;;;;;;74.88;20.05;;;6.00;99.90;;;;;;5115872;28;20162;-91
2021/12/05 18:16:27;;;;;;;72.82;16.50;;;6.00;99.90;;;;;;5113837;28;20166;-91
2021/12/05 18:18:51;;;;;;;82.32;35.45;;;6.00;99.90;;;;;;5111667;28;20175;-91
2021/12/05 18:21:30;;;;;;;;;;;;;;;;;;;;;
2021/12/05 18:23:56;;;;;;;81.53;38.38;;;5.90;99.90;;;;;;5115694;28;20163;-91
2021/12/05 18:26:29;;;;;;;79.93;37.65;;;5.90;99.90;;;;;;5115391;28;20178;-91
2021/12/05 18:28:57;;;;;;;82.60;36.95;;;5.90;99.90;;;;;;5115334;28;20178;-91
2021/12/05 18:31:31;;;;;;;79.55;33.10;;;5.90;99.90;;;;;;5113906;28;20166;-92
2021/12/05 18:34:15;;;;;;;79.78;37.50;;;5.90;99.90;;;;;;5114207;28;20182;-91
2021/12/05 18:36:44;;;;;;;77.35;28.40;;;6.00;99.90;;;;;;5114838;28;20142;-91
2021/12/05 18:39:19;;;;;;;76.20;28.27;;;6.00;99.90;;;;;;5113625;28;20193;-91
2021/12/05 18:41:45;;;;;;;76.28;27.52;;;6.00;99.90;;;;;;5115331;28;20139;-91
2021/12/05 18:44:17;;;;;;;74.65;21.38;;;6.00;99.90;;;;;;5114774;28;20237;-91
2021/12/05 18:46:50;;;;;;;74.97;18.88;;;5.90;99.90;;;;;;5113716;28;20235;-91